sensor_id;sensor_type;location;lat;lon;timestamp;P1;durP1;ratioP1;P2;durP2;ratioP2
37997;SDS011;24079;51.824;4.682;2023-06-04T00:02:24;8.18;;;2.47;;
37997;SDS011;24079;51.824;4.682;2023-06-04T00:04:50;10.85;;;3.00;;
37997;SDS011;24079;51.824;4.682;2023-06-04T00:07:17;5.00;;;2.17;;
37997;SDS011;24079;51.824;4.682;2023-06-04T00:09:43;4.95;;;2.58;;
37997;SDS011;24079;51.824;4.682;2023-06-04T00:12:12;6.43;;;3.33;;
37997;SDS011;24079;51.824;4.682;2023-06-04T00:14:38;7.47;;;2.78;;
37997;SDS011;24079;51.824;4.682;2023-06-04T00:17:05;6.75;;;2.63;;
37997;SDS011;24079;51.824;4.682;2023-06-04T00:19:31;3.95;;;2.50;;
37997;SDS011;24079;51.824;4.682;2023-06-04T00:21:59;3.65;;;2.33;;
37997;SDS011;24079;51.824;4.682;2023-06-04T00:24:25;4.30;;;2.13;;
37997;SDS011;24079;51.824;4.682;2023-06-04T00:26:51;6.60;;;2.65;;
37997;SDS011;24079;51.824;4.682;2023-06-04T00:29:17;8.82;;;2.38;;
37997;SDS011;24079;51.824;4.682;2023-06-04T00:31:43;7.72;;;2.03;;
37997;SDS011;24079;51.824;4.682;2023-06-04T00:34:10;7.97;;;2.25;;
37997;SDS011;24079;51.824;4.682;2023-06-04T00:36:36;6.60;;;2.50;;
37997;SDS011;24079;51.824;4.682;2023-06-04T00:39:02;8.32;;;2.15;;
37997;SDS011;24079;51.824;4.682;2023-06-04T00:41:28;4.22;;;2.08;;
37997;SDS011;24079;51.824;4.682;2023-06-04T00:43:54;5.10;;;2.35;;
37997;SDS011;24079;51.824;4.682;2023-06-04T00:46:40;5.25;;;2.13;;
37997;SDS011;24079;51.824;4.682;2023-06-04T00:49:06;5.00;;;2.80;;
37997;SDS011;24079;51.824;4.682;2023-06-04T00:51:32;3.78;;;2.33;;
37997;SDS011;24079;51.824;4.682;2023-06-04T00:53:58;2.38;;;2.03;;
37997;SDS011;24079;51.824;4.682;2023-06-04T00:56:27;6.93;;;2.40;;
37997;SDS011;24079;51.824;4.682;2023-06-04T00:58:53;3.92;;;2.35;;
37997;SDS011;24079;51.824;4.682;2023-06-04T01:01:22;4.07;;;2.33;;
37997;SDS011;24079;51.824;4.682;2023-06-04T01:03:57;3.97;;;2.65;;
37997;SDS011;24079;51.824;4.682;2023-06-04T01:06:31;8.30;;;2.00;;
37997;SDS011;24079;51.824;4.682;2023-06-04T01:09:04;8.63;;;2.80;;
37997;SDS011;24079;51.824;4.682;2023-06-04T01:11:32;5.25;;;2.35;;
37997;SDS011;24079;51.824;4.682;2023-06-04T01:14:02;6.10;;;2.80;;
37997;SDS011;24079;51.824;4.682;2023-06-04T01:16:32;6.13;;;2.50;;
37997;SDS011;24079;51.824;4.682;2023-06-04T01:19:10;5.63;;;2.40;;
37997;SDS011;24079;51.824;4.682;2023-06-04T01:21:48;5.30;;;2.20;;
37997;SDS011;24079;51.824;4.682;2023-06-04T01:24:19;6.75;;;2.17;;
37997;SDS011;24079;51.824;4.682;2023-06-04T01:26:49;5.20;;;2.23;;
37997;SDS011;24079;51.824;4.682;2023-06-04T01:29:17;5.72;;;2.45;;
37997;SDS011;24079;51.824;4.682;2023-06-04T01:31:43;6.18;;;2.40;;
37997;SDS011;24079;51.824;4.682;2023-06-04T01:34:09;4.20;;;2.42;;
37997;SDS011;24079;51.824;4.682;2023-06-04T01:36:35;10.52;;;2.42;;
37997;SDS011;24079;51.824;4.682;2023-06-04T01:39:01;6.60;;;2.60;;
37997;SDS011;24079;51.824;4.682;2023-06-04T01:41:27;4.03;;;2.08;;
37997;SDS011;24079;51.824;4.682;2023-06-04T01:43:53;5.32;;;2.25;;
37997;SDS011;24079;51.824;4.682;2023-06-04T01:46:20;4.82;;;2.53;;
37997;SDS011;24079;51.824;4.682;2023-06-04T01:48:46;5.10;;;2.38;;
37997;SDS011;24079;51.824;4.682;2023-06-04T01:51:14;6.43;;;2.70;;
37997;SDS011;24079;51.824;4.682;2023-06-04T01:53:40;5.93;;;2.53;;
37997;SDS011;24079;51.824;4.682;2023-06-04T01:56:05;7.20;;;2.40;;
37997;SDS011;24079;51.824;4.682;2023-06-04T01:58:32;3.75;;;2.35;;
37997;SDS011;24079;51.824;4.682;2023-06-04T02:00:58;6.15;;;2.28;;
37997;SDS011;24079;51.824;4.682;2023-06-04T02:03:28;5.55;;;2.70;;
37997;SDS011;24079;51.824;4.682;2023-06-04T02:06:00;11.20;;;2.50;;
37997;SDS011;24079;51.824;4.682;2023-06-04T02:08:26;5.05;;;2.47;;
37997;SDS011;24079;51.824;4.682;2023-06-04T02:10:52;8.00;;;2.45;;
37997;SDS011;24079;51.824;4.682;2023-06-04T02:13:18;6.93;;;2.65;;
37997;SDS011;24079;51.824;4.682;2023-06-04T02:15:43;6.85;;;2.55;;
37997;SDS011;24079;51.824;4.682;2023-06-04T02:18:16;5.28;;;2.65;;
37997;SDS011;24079;51.824;4.682;2023-06-04T02:20:46;4.00;;;2.40;;
37997;SDS011;24079;51.824;4.682;2023-06-04T02:23:14;6.05;;;2.92;;
37997;SDS011;24079;51.824;4.682;2023-06-04T02:25:41;4.60;;;2.83;;
37997;SDS011;24079;51.824;4.682;2023-06-04T02:28:09;6.05;;;2.60;;
37997;SDS011;24079;51.824;4.682;2023-06-04T02:30:35;5.60;;;2.92;;
37997;SDS011;24079;51.824;4.682;2023-06-04T02:33:01;7.57;;;3.03;;
37997;SDS011;24079;51.824;4.682;2023-06-04T02:35:28;8.05;;;2.40;;
37997;SDS011;24079;51.824;4.682;2023-06-04T02:37:55;5.55;;;2.47;;
37997;SDS011;24079;51.824;4.682;2023-06-04T02:40:24;3.88;;;2.22;;
37997;SDS011;24079;51.824;4.682;2023-06-04T02:42:51;5.07;;;2.10;;
37997;SDS011;24079;51.824;4.682;2023-06-04T02:45:18;4.85;;;2.70;;
37997;SDS011;24079;51.824;4.682;2023-06-04T02:47:44;5.90;;;2.80;;
37997;SDS011;24079;51.824;4.682;2023-06-04T02:50:10;4.25;;;2.60;;
37997;SDS011;24079;51.824;4.682;2023-06-04T02:52:36;3.70;;;2.17;;
37997;SDS011;24079;51.824;4.682;2023-06-04T02:55:06;8.88;;;2.58;;
37997;SDS011;24079;51.824;4.682;2023-06-04T02:57:33;3.20;;;2.22;;
37997;SDS011;24079;51.824;4.682;2023-06-04T02:59:59;4.40;;;2.38;;
37997;SDS011;24079;51.824;4.682;2023-06-04T03:02:25;4.57;;;2.58;;
37997;SDS011;24079;51.824;4.682;2023-06-04T03:04:50;7.38;;;2.65;;
37997;SDS011;24079;51.824;4.682;2023-06-04T03:07:17;4.85;;;2.30;;
37997;SDS011;24079;51.824;4.682;2023-06-04T03:09:48;3.63;;;2.28;;
37997;SDS011;24079;51.824;4.682;2023-06-04T03:12:14;5.43;;;2.28;;
37997;SDS011;24079;51.824;4.682;2023-06-04T03:14:40;4.72;;;2.10;;
37997;SDS011;24079;51.824;4.682;2023-06-04T03:17:05;7.70;;;2.40;;
37997;SDS011;24079;51.824;4.682;2023-06-04T03:19:39;9.32;;;2.97;;
37997;SDS011;24079;51.824;4.682;2023-06-04T03:22:06;6.30;;;2.78;;
37997;SDS011;24079;51.824;4.682;2023-06-04T03:24:42;5.53;;;2.40;;
37997;SDS011;24079;51.824;4.682;2023-06-04T03:27:08;5.15;;;2.22;;
37997;SDS011;24079;51.824;4.682;2023-06-04T03:29:35;5.85;;;2.38;;
37997;SDS011;24079;51.824;4.682;2023-06-04T03:32:01;4.45;;;2.42;;
37997;SDS011;24079;51.824;4.682;2023-06-04T03:34:27;4.53;;;2.00;;
37997;SDS011;24079;51.824;4.682;2023-06-04T03:36:56;7.47;;;2.50;;
37997;SDS011;24079;51.824;4.682;2023-06-04T03:39:22;5.32;;;2.13;;
37997;SDS011;24079;51.824;4.682;2023-06-04T03:41:51;3.42;;;2.20;;
37997;SDS011;24079;51.824;4.682;2023-06-04T03:44:17;5.78;;;2.00;;
37997;SDS011;24079;51.824;4.682;2023-06-04T03:46:43;6.80;;;2.45;;
37997;SDS011;24079;51.824;4.682;2023-06-04T03:49:10;6.47;;;2.10;;
37997;SDS011;24079;51.824;4.682;2023-06-04T03:51:36;4.68;;;2.22;;
37997;SDS011;24079;51.824;4.682;2023-06-04T03:54:03;6.03;;;2.25;;
37997;SDS011;24079;51.824;4.682;2023-06-04T03:56:30;5.18;;;2.25;;
37997;SDS011;24079;51.824;4.682;2023-06-04T03:58:56;6.15;;;2.20;;
37997;SDS011;24079;51.824;4.682;2023-06-04T04:01:22;7.47;;;2.35;;
37997;SDS011;24079;51.824;4.682;2023-06-04T04:03:48;4.50;;;2.42;;
37997;SDS011;24079;51.824;4.682;2023-06-04T04:06:15;3.25;;;2.00;;
37997;SDS011;24079;51.824;4.682;2023-06-04T04:08:41;3.42;;;2.15;;
37997;SDS011;24079;51.824;4.682;2023-06-04T04:11:10;4.72;;;2.03;;
37997;SDS011;24079;51.824;4.682;2023-06-04T04:13:39;4.70;;;2.20;;
37997;SDS011;24079;51.824;4.682;2023-06-04T04:16:04;4.68;;;2.45;;
37997;SDS011;24079;51.824;4.682;2023-06-04T04:18:34;5.38;;;2.40;;
37997;SDS011;24079;51.824;4.682;2023-06-04T04:21:01;3.05;;;2.10;;
37997;SDS011;24079;51.824;4.682;2023-06-04T04:23:27;4.85;;;2.10;;
37997;SDS011;24079;51.824;4.682;2023-06-04T04:25:54;3.22;;;2.00;;
37997;SDS011;24079;51.824;4.682;2023-06-04T04:28:23;5.93;;;2.40;;
37997;SDS011;24079;51.824;4.682;2023-06-04T04:30:54;7.13;;;2.53;;
37997;SDS011;24079;51.824;4.682;2023-06-04T04:33:22;6.10;;;2.88;;
37997;SDS011;24079;51.824;4.682;2023-06-04T04:35:49;4.28;;;2.10;;
37997;SDS011;24079;51.824;4.682;2023-06-04T04:38:16;3.13;;;2.13;;
37997;SDS011;24079;51.824;4.682;2023-06-04T04:40:45;6.22;;;2.30;;
37997;SDS011;24079;51.824;4.682;2023-06-04T04:43:13;3.03;;;2.20;;
37997;SDS011;24079;51.824;4.682;2023-06-04T04:45:39;6.05;;;2.58;;
37997;SDS011;24079;51.824;4.682;2023-06-04T04:48:05;3.70;;;2.10;;
37997;SDS011;24079;51.824;4.682;2023-06-04T04:50:31;2.60;;;1.92;;
37997;SDS011;24079;51.824;4.682;2023-06-04T04:52:57;3.60;;;2.20;;
37997;SDS011;24079;51.824;4.682;2023-06-04T04:55:23;6.10;;;2.22;;
37997;SDS011;24079;51.824;4.682;2023-06-04T04:57:49;4.25;;;2.60;;
37997;SDS011;24079;51.824;4.682;2023-06-04T05:00:15;3.88;;;2.30;;
37997;SDS011;24079;51.824;4.682;2023-06-04T05:02:42;3.70;;;2.10;;
37997;SDS011;24079;51.824;4.682;2023-06-04T05:05:08;5.13;;;2.00;;
37997;SDS011;24079;51.824;4.682;2023-06-04T05:07:36;5.82;;;2.17;;
37997;SDS011;24079;51.824;4.682;2023-06-04T05:10:02;2.38;;;1.90;;
37997;SDS011;24079;51.824;4.682;2023-06-04T05:12:29;5.57;;;2.17;;
37997;SDS011;24079;51.824;4.682;2023-06-04T05:14:57;5.43;;;1.90;;
37997;SDS011;24079;51.824;4.682;2023-06-04T05:17:23;4.70;;;2.10;;
37997;SDS011;24079;51.824;4.682;2023-06-04T05:19:58;3.60;;;1.90;;
37997;SDS011;24079;51.824;4.682;2023-06-04T05:22:30;5.50;;;2.58;;
37997;SDS011;24079;51.824;4.682;2023-06-04T05:24:57;5.13;;;2.55;;
37997;SDS011;24079;51.824;4.682;2023-06-04T05:27:25;5.30;;;2.33;;
37997;SDS011;24079;51.824;4.682;2023-06-04T05:29:51;4.40;;;2.35;;
37997;SDS011;24079;51.824;4.682;2023-06-04T05:32:17;5.10;;;2.08;;
37997;SDS011;24079;51.824;4.682;2023-06-04T05:34:43;3.90;;;2.00;;
37997;SDS011;24079;51.824;4.682;2023-06-04T05:37:09;3.47;;;2.03;;
37997;SDS011;24079;51.824;4.682;2023-06-04T05:39:35;4.05;;;1.95;;
37997;SDS011;24079;51.824;4.682;2023-06-04T05:42:01;6.80;;;2.30;;
37997;SDS011;24079;51.824;4.682;2023-06-04T05:44:27;3.72;;;2.15;;
37997;SDS011;24079;51.824;4.682;2023-06-04T05:46:53;5.55;;;1.92;;
37997;SDS011;24079;51.824;4.682;2023-06-04T05:49:19;7.32;;;2.72;;
37997;SDS011;24079;51.824;4.682;2023-06-04T05:51:46;4.20;;;2.20;;
37997;SDS011;24079;51.824;4.682;2023-06-04T05:54:11;7.03;;;2.33;;
37997;SDS011;24079;51.824;4.682;2023-06-04T05:56:37;4.32;;;2.20;;
37997;SDS011;24079;51.824;4.682;2023-06-04T05:59:03;5.00;;;2.03;;
37997;SDS011;24079;51.824;4.682;2023-06-04T06:01:29;4.75;;;2.20;;
37997;SDS011;24079;51.824;4.682;2023-06-04T06:03:55;7.85;;;2.45;;
37997;SDS011;24079;51.824;4.682;2023-06-04T06:06:21;6.10;;;2.47;;
37997;SDS011;24079;51.824;4.682;2023-06-04T06:08:46;5.35;;;2.25;;
37997;SDS011;24079;51.824;4.682;2023-06-04T06:11:12;11.30;;;2.58;;
37997;SDS011;24079;51.824;4.682;2023-06-04T06:13:37;7.55;;;2.45;;
37997;SDS011;24079;51.824;4.682;2023-06-04T06:16:03;5.10;;;2.53;;
37997;SDS011;24079;51.824;4.682;2023-06-04T06:18:29;5.07;;;2.53;;
37997;SDS011;24079;51.824;4.682;2023-06-04T06:20:55;7.25;;;2.28;;
37997;SDS011;24079;51.824;4.682;2023-06-04T06:23:21;8.10;;;2.80;;
37997;SDS011;24079;51.824;4.682;2023-06-04T06:25:48;3.80;;;2.22;;
37997;SDS011;24079;51.824;4.682;2023-06-04T06:28:16;4.63;;;2.53;;
37997;SDS011;24079;51.824;4.682;2023-06-04T06:30:41;5.68;;;2.65;;
37997;SDS011;24079;51.824;4.682;2023-06-04T06:33:07;6.35;;;2.65;;
37997;SDS011;24079;51.824;4.682;2023-06-04T06:35:33;5.85;;;2.35;;
37997;SDS011;24079;51.824;4.682;2023-06-04T06:37:58;8.20;;;2.35;;
37997;SDS011;24079;51.824;4.682;2023-06-04T06:40:24;7.35;;;2.28;;
37997;SDS011;24079;51.824;4.682;2023-06-04T06:42:50;6.00;;;2.17;;
37997;SDS011;24079;51.824;4.682;2023-06-04T06:45:18;6.30;;;2.17;;
37997;SDS011;24079;51.824;4.682;2023-06-04T06:47:44;4.93;;;2.25;;
37997;SDS011;24079;51.824;4.682;2023-06-04T06:50:10;7.38;;;2.28;;
37997;SDS011;24079;51.824;4.682;2023-06-04T06:52:37;5.93;;;2.45;;
37997;SDS011;24079;51.824;4.682;2023-06-04T06:55:03;4.63;;;1.98;;
37997;SDS011;24079;51.824;4.682;2023-06-04T06:57:30;8.60;;;2.13;;
37997;SDS011;24079;51.824;4.682;2023-06-04T06:59:56;5.72;;;2.25;;
37997;SDS011;24079;51.824;4.682;2023-06-04T07:02:22;8.27;;;2.67;;
37997;SDS011;24079;51.824;4.682;2023-06-04T07:04:49;4.90;;;2.05;;
37997;SDS011;24079;51.824;4.682;2023-06-04T07:07:15;10.48;;;2.80;;
37997;SDS011;24079;51.824;4.682;2023-06-04T07:09:42;10.95;;;2.17;;
37997;SDS011;24079;51.824;4.682;2023-06-04T07:12:08;6.07;;;2.17;;
37997;SDS011;24079;51.824;4.682;2023-06-04T07:14:34;4.38;;;1.95;;
37997;SDS011;24079;51.824;4.682;2023-06-04T07:17:00;6.97;;;2.70;;
37997;SDS011;24079;51.824;4.682;2023-06-04T07:19:25;7.75;;;2.40;;
37997;SDS011;24079;51.824;4.682;2023-06-04T07:21:53;7.72;;;2.55;;
37997;SDS011;24079;51.824;4.682;2023-06-04T07:24:20;4.28;;;1.92;;
37997;SDS011;24079;51.824;4.682;2023-06-04T07:26:46;5.32;;;2.13;;
37997;SDS011;24079;51.824;4.682;2023-06-04T07:29:12;7.60;;;2.00;;
37997;SDS011;24079;51.824;4.682;2023-06-04T07:31:39;6.20;;;2.30;;
37997;SDS011;24079;51.824;4.682;2023-06-04T07:34:06;9.93;;;2.30;;
37997;SDS011;24079;51.824;4.682;2023-06-04T07:36:32;4.60;;;2.53;;
37997;SDS011;24079;51.824;4.682;2023-06-04T07:38:58;7.65;;;2.58;;
37997;SDS011;24079;51.824;4.682;2023-06-04T07:41:25;6.55;;;2.58;;
37997;SDS011;24079;51.824;4.682;2023-06-04T07:43:51;5.90;;;2.13;;
37997;SDS011;24079;51.824;4.682;2023-06-04T07:46:17;5.07;;;2.38;;
37997;SDS011;24079;51.824;4.682;2023-06-04T07:48:46;5.95;;;2.35;;
37997;SDS011;24079;51.824;4.682;2023-06-04T07:51:12;7.45;;;2.30;;
37997;SDS011;24079;51.824;4.682;2023-06-04T07:53:39;6.60;;;2.45;;
37997;SDS011;24079;51.824;4.682;2023-06-04T07:56:06;4.97;;;2.20;;
37997;SDS011;24079;51.824;4.682;2023-06-04T07:58:32;4.70;;;2.17;;
37997;SDS011;24079;51.824;4.682;2023-06-04T08:00:58;3.88;;;2.20;;
37997;SDS011;24079;51.824;4.682;2023-06-04T08:03:24;4.82;;;2.20;;
37997;SDS011;24079;51.824;4.682;2023-06-04T08:05:50;4.85;;;2.10;;
37997;SDS011;24079;51.824;4.682;2023-06-04T08:08:16;4.20;;;2.30;;
37997;SDS011;24079;51.824;4.682;2023-06-04T08:10:42;3.17;;;1.90;;
37997;SDS011;24079;51.824;4.682;2023-06-04T08:13:08;4.72;;;1.85;;
37997;SDS011;24079;51.824;4.682;2023-06-04T08:15:35;10.25;;;2.10;;
37997;SDS011;24079;51.824;4.682;2023-06-04T08:18:01;8.65;;;2.35;;
37997;SDS011;24079;51.824;4.682;2023-06-04T08:20:27;7.30;;;2.58;;
37997;SDS011;24079;51.824;4.682;2023-06-04T08:22:53;5.50;;;2.20;;
37997;SDS011;24079;51.824;4.682;2023-06-04T08:25:19;6.47;;;2.08;;
37997;SDS011;24079;51.824;4.682;2023-06-04T08:27:45;5.88;;;1.90;;
37997;SDS011;24079;51.824;4.682;2023-06-04T08:30:11;5.50;;;1.90;;
37997;SDS011;24079;51.824;4.682;2023-06-04T08:32:37;6.18;;;2.00;;
37997;SDS011;24079;51.824;4.682;2023-06-04T08:35:05;3.65;;;1.98;;
37997;SDS011;24079;51.824;4.682;2023-06-04T08:37:31;4.63;;;1.90;;
37997;SDS011;24079;51.824;4.682;2023-06-04T08:39:57;3.78;;;1.90;;
37997;SDS011;24079;51.824;4.682;2023-06-04T08:42:30;5.18;;;1.70;;
37997;SDS011;24079;51.824;4.682;2023-06-04T08:45:00;7.78;;;1.80;;
37997;SDS011;24079;51.824;4.682;2023-06-04T08:47:28;4.82;;;1.88;;
37997;SDS011;24079;51.824;4.682;2023-06-04T08:49:55;6.45;;;1.88;;
37997;SDS011;24079;51.824;4.682;2023-06-04T08:52:25;5.43;;;1.77;;
37997;SDS011;24079;51.824;4.682;2023-06-04T08:54:54;3.83;;;1.58;;
37997;SDS011;24079;51.824;4.682;2023-06-04T08:57:22;6.90;;;2.00;;
37997;SDS011;24079;51.824;4.682;2023-06-04T08:59:48;4.47;;;1.92;;
37997;SDS011;24079;51.824;4.682;2023-06-04T09:02:15;4.70;;;1.75;;
37997;SDS011;24079;51.824;4.682;2023-06-04T09:04:42;5.45;;;2.00;;
37997;SDS011;24079;51.824;4.682;2023-06-04T09:07:10;4.70;;;1.92;;
37997;SDS011;24079;51.824;4.682;2023-06-04T09:09:38;3.80;;;1.77;;
37997;SDS011;24079;51.824;4.682;2023-06-04T09:12:05;2.67;;;1.38;;
37997;SDS011;24079;51.824;4.682;2023-06-04T09:14:36;6.28;;;1.80;;
37997;SDS011;24079;51.824;4.682;2023-06-04T09:17:02;7.00;;;1.83;;
37997;SDS011;24079;51.824;4.682;2023-06-04T09:19:28;5.82;;;1.85;;
37997;SDS011;24079;51.824;4.682;2023-06-04T09:21:55;5.22;;;1.67;;
37997;SDS011;24079;51.824;4.682;2023-06-04T09:24:42;3.88;;;1.70;;
37997;SDS011;24079;51.824;4.682;2023-06-04T09:27:13;5.15;;;1.75;;
37997;SDS011;24079;51.824;4.682;2023-06-04T09:29:40;5.35;;;1.88;;
37997;SDS011;24079;51.824;4.682;2023-06-04T09:32:13;5.38;;;1.80;;
37997;SDS011;24079;51.824;4.682;2023-06-04T09:34:38;3.92;;;1.63;;
37997;SDS011;24079;51.824;4.682;2023-06-04T09:37:13;3.97;;;1.88;;
37997;SDS011;24079;51.824;4.682;2023-06-04T09:39:53;5.80;;;1.52;;
37997;SDS011;24079;51.824;4.682;2023-06-04T09:42:20;5.00;;;1.60;;
37997;SDS011;24079;51.824;4.682;2023-06-04T09:44:47;6.50;;;1.92;;
37997;SDS011;24079;51.824;4.682;2023-06-04T09:47:12;5.50;;;1.52;;
37997;SDS011;24079;51.824;4.682;2023-06-04T09:49:44;3.85;;;1.77;;
37997;SDS011;24079;51.824;4.682;2023-06-04T09:52:11;8.77;;;1.55;;
37997;SDS011;24079;51.824;4.682;2023-06-04T09:54:38;4.25;;;1.40;;
37997;SDS011;24079;51.824;4.682;2023-06-04T09:57:13;4.50;;;1.83;;
37997;SDS011;24079;51.824;4.682;2023-06-04T09:59:46;7.60;;;1.83;;
37997;SDS011;24079;51.824;4.682;2023-06-04T10:02:18;5.53;;;1.70;;
37997;SDS011;24079;51.824;4.682;2023-06-04T10:04:48;6.88;;;1.90;;
37997;SDS011;24079;51.824;4.682;2023-06-04T10:07:20;5.00;;;1.80;;
37997;SDS011;24079;51.824;4.682;2023-06-04T10:09:47;5.05;;;1.58;;
37997;SDS011;24079;51.824;4.682;2023-06-04T10:12:14;5.35;;;1.60;;
37997;SDS011;24079;51.824;4.682;2023-06-04T10:14:44;3.00;;;1.35;;
37997;SDS011;24079;51.824;4.682;2023-06-04T10:17:15;4.68;;;1.92;;
37997;SDS011;24079;51.824;4.682;2023-06-04T10:19:43;6.20;;;1.60;;
37997;SDS011;24079;51.824;4.682;2023-06-04T10:22:10;3.67;;;1.60;;
37997;SDS011;24079;51.824;4.682;2023-06-04T10:24:36;4.47;;;1.63;;
37997;SDS011;24079;51.824;4.682;2023-06-04T10:27:03;6.00;;;1.80;;
37997;SDS011;24079;51.824;4.682;2023-06-04T10:29:35;4.18;;;1.50;;
37997;SDS011;24079;51.824;4.682;2023-06-04T10:32:01;5.35;;;1.83;;
37997;SDS011;24079;51.824;4.682;2023-06-04T10:34:27;5.15;;;1.48;;
37997;SDS011;24079;51.824;4.682;2023-06-04T10:36:55;2.92;;;1.45;;
37997;SDS011;24079;51.824;4.682;2023-06-04T10:39:30;3.45;;;1.40;;
37997;SDS011;24079;51.824;4.682;2023-06-04T10:42:06;4.07;;;1.52;;
37997;SDS011;24079;51.824;4.682;2023-06-04T10:44:32;3.53;;;1.52;;
37997;SDS011;24079;51.824;4.682;2023-06-04T10:47:22;5.93;;;1.95;;
37997;SDS011;24079;51.824;4.682;2023-06-04T10:52:31;4.75;;;1.70;;
37997;SDS011;24079;51.824;4.682;2023-06-04T10:55:02;3.50;;;1.50;;
37997;SDS011;24079;51.824;4.682;2023-06-04T10:57:29;3.13;;;1.70;;
37997;SDS011;24079;51.824;4.682;2023-06-04T10:59:55;6.65;;;1.45;;
37997;SDS011;24079;51.824;4.682;2023-06-04T11:02:24;9.25;;;2.33;;
37997;SDS011;24079;51.824;4.682;2023-06-04T11:07:43;4.07;;;1.10;;
37997;SDS011;24079;51.824;4.682;2023-06-04T11:10:11;5.40;;;1.40;;
37997;SDS011;24079;51.824;4.682;2023-06-04T11:12:44;2.13;;;1.60;;
37997;SDS011;24079;51.824;4.682;2023-06-04T11:15:11;10.23;;;1.83;;
37997;SDS011;24079;51.824;4.682;2023-06-04T11:17:37;6.15;;;1.40;;
37997;SDS011;24079;51.824;4.682;2023-06-04T11:20:17;4.68;;;1.10;;
37997;SDS011;24079;51.824;4.682;2023-06-04T11:22:52;3.40;;;1.55;;
37997;SDS011;24079;51.824;4.682;2023-06-04T11:25:25;8.00;;;1.25;;
37997;SDS011;24079;51.824;4.682;2023-06-04T11:27:54;2.17;;;1.05;;
37997;SDS011;24079;51.824;4.682;2023-06-04T11:30:21;3.15;;;1.30;;
37997;SDS011;24079;51.824;4.682;2023-06-04T11:32:48;3.40;;;1.55;;
37997;SDS011;24079;51.824;4.682;2023-06-04T11:35:13;5.35;;;1.58;;
37997;SDS011;24079;51.824;4.682;2023-06-04T11:37:40;2.47;;;1.23;;
37997;SDS011;24079;51.824;4.682;2023-06-04T11:40:26;5.25;;;1.67;;
37997;SDS011;24079;51.824;4.682;2023-06-04T11:42:52;4.63;;;1.10;;
37997;SDS011;24079;51.824;4.682;2023-06-04T11:45:18;6.03;;;1.60;;
37997;SDS011;24079;51.824;4.682;2023-06-04T11:47:50;5.75;;;1.10;;
37997;SDS011;24079;51.824;4.682;2023-06-04T11:50:18;2.67;;;1.13;;
37997;SDS011;24079;51.824;4.682;2023-06-04T11:52:44;3.40;;;1.33;;
37997;SDS011;24079;51.824;4.682;2023-06-04T11:55:10;4.55;;;1.30;;
37997;SDS011;24079;51.824;4.682;2023-06-04T11:57:40;2.20;;;1.20;;
37997;SDS011;24079;51.824;4.682;2023-06-04T12:00:06;3.83;;;1.45;;
37997;SDS011;24079;51.824;4.682;2023-06-04T12:02:36;5.18;;;1.33;;
37997;SDS011;24079;51.824;4.682;2023-06-04T12:05:12;5.70;;;1.40;;
37997;SDS011;24079;51.824;4.682;2023-06-04T12:07:44;4.53;;;1.42;;
37997;SDS011;24079;51.824;4.682;2023-06-04T12:10:10;1.98;;;1.30;;
37997;SDS011;24079;51.824;4.682;2023-06-04T12:12:37;3.38;;;1.52;;
37997;SDS011;24079;51.824;4.682;2023-06-04T12:15:04;3.20;;;1.55;;
37997;SDS011;24079;51.824;4.682;2023-06-04T12:17:31;3.60;;;1.17;;
37997;SDS011;24079;51.824;4.682;2023-06-04T12:19:57;4.18;;;1.35;;
37997;SDS011;24079;51.824;4.682;2023-06-04T12:22:24;4.18;;;1.27;;
37997;SDS011;24079;51.824;4.682;2023-06-04T12:24:53;4.03;;;1.50;;
37997;SDS011;24079;51.824;4.682;2023-06-04T12:27:20;5.38;;;1.30;;
37997;SDS011;24079;51.824;4.682;2023-06-04T12:29:58;2.72;;;1.40;;
37997;SDS011;24079;51.824;4.682;2023-06-04T12:32:26;2.85;;;1.55;;
37997;SDS011;24079;51.824;4.682;2023-06-04T12:34:52;6.03;;;1.50;;
37997;SDS011;24079;51.824;4.682;2023-06-04T12:37:19;3.50;;;1.50;;
37997;SDS011;24079;51.824;4.682;2023-06-04T12:39:46;1.83;;;1.30;;
37997;SDS011;24079;51.824;4.682;2023-06-04T12:42:13;2.25;;;1.20;;
37997;SDS011;24079;51.824;4.682;2023-06-04T12:44:39;6.43;;;1.85;;
37997;SDS011;24079;51.824;4.682;2023-06-04T12:47:06;7.45;;;1.80;;
37997;SDS011;24079;51.824;4.682;2023-06-04T12:49:33;4.53;;;1.80;;
37997;SDS011;24079;51.824;4.682;2023-06-04T12:51:59;5.53;;;2.08;;
37997;SDS011;24079;51.824;4.682;2023-06-04T12:54:25;10.50;;;2.05;;
37997;SDS011;24079;51.824;4.682;2023-06-04T12:56:54;6.50;;;2.05;;
37997;SDS011;24079;51.824;4.682;2023-06-04T12:59:24;3.92;;;1.90;;
37997;SDS011;24079;51.824;4.682;2023-06-04T13:01:51;2.85;;;1.60;;
37997;SDS011;24079;51.824;4.682;2023-06-04T13:04:18;6.13;;;2.30;;
37997;SDS011;24079;51.824;4.682;2023-06-04T13:06:44;5.38;;;1.90;;
37997;SDS011;24079;51.824;4.682;2023-06-04T13:09:13;6.65;;;2.00;;
37997;SDS011;24079;51.824;4.682;2023-06-04T13:11:40;6.07;;;2.25;;
37997;SDS011;24079;51.824;4.682;2023-06-04T13:14:09;5.70;;;1.95;;
37997;SDS011;24079;51.824;4.682;2023-06-04T13:16:37;6.80;;;2.25;;
37997;SDS011;24079;51.824;4.682;2023-06-04T13:19:03;4.35;;;2.05;;
37997;SDS011;24079;51.824;4.682;2023-06-04T13:21:30;6.43;;;2.35;;
37997;SDS011;24079;51.824;4.682;2023-06-04T13:23:56;7.57;;;2.17;;
37997;SDS011;24079;51.824;4.682;2023-06-04T13:26:22;5.88;;;2.20;;
37997;SDS011;24079;51.824;4.682;2023-06-04T13:28:48;6.38;;;2.17;;
37997;SDS011;24079;51.824;4.682;2023-06-04T13:31:14;5.95;;;2.08;;
37997;SDS011;24079;51.824;4.682;2023-06-04T13:33:40;7.47;;;1.92;;
37997;SDS011;24079;51.824;4.682;2023-06-04T13:36:07;6.82;;;1.92;;
37997;SDS011;24079;51.824;4.682;2023-06-04T13:38:33;6.22;;;2.17;;
37997;SDS011;24079;51.824;4.682;2023-06-04T13:41:00;3.75;;;1.80;;
37997;SDS011;24079;51.824;4.682;2023-06-04T13:43:26;5.15;;;1.70;;
37997;SDS011;24079;51.824;4.682;2023-06-04T13:45:52;4.38;;;2.08;;
37997;SDS011;24079;51.824;4.682;2023-06-04T13:48:18;4.60;;;2.05;;
37997;SDS011;24079;51.824;4.682;2023-06-04T13:50:45;5.38;;;2.13;;
37997;SDS011;24079;51.824;4.682;2023-06-04T13:53:11;8.75;;;1.90;;
37997;SDS011;24079;51.824;4.682;2023-06-04T13:55:38;5.50;;;2.28;;
37997;SDS011;24079;51.824;4.682;2023-06-04T13:58:04;4.43;;;1.98;;
37997;SDS011;24079;51.824;4.682;2023-06-04T14:00:31;10.45;;;2.45;;
37997;SDS011;24079;51.824;4.682;2023-06-04T14:02:58;6.47;;;2.20;;
37997;SDS011;24079;51.824;4.682;2023-06-04T14:05:24;4.93;;;2.10;;
37997;SDS011;24079;51.824;4.682;2023-06-04T14:07:52;8.32;;;2.08;;
37997;SDS011;24079;51.824;4.682;2023-06-04T14:10:20;6.47;;;2.45;;
37997;SDS011;24079;51.824;4.682;2023-06-04T14:12:45;5.32;;;2.03;;
37997;SDS011;24079;51.824;4.682;2023-06-04T14:15:11;6.43;;;2.17;;
37997;SDS011;24079;51.824;4.682;2023-06-04T14:17:39;4.97;;;2.25;;
37997;SDS011;24079;51.824;4.682;2023-06-04T14:20:05;5.22;;;1.80;;
37997;SDS011;24079;51.824;4.682;2023-06-04T14:22:38;5.25;;;1.98;;
37997;SDS011;24079;51.824;4.682;2023-06-04T14:25:04;6.80;;;2.17;;
37997;SDS011;24079;51.824;4.682;2023-06-04T14:27:31;5.00;;;1.90;;
37997;SDS011;24079;51.824;4.682;2023-06-04T14:29:57;7.85;;;2.20;;
37997;SDS011;24079;51.824;4.682;2023-06-04T14:32:23;9.02;;;2.28;;
37997;SDS011;24079;51.824;4.682;2023-06-04T14:34:48;6.30;;;2.17;;
37997;SDS011;24079;51.824;4.682;2023-06-04T14:37:14;6.38;;;2.08;;
37997;SDS011;24079;51.824;4.682;2023-06-04T14:39:40;10.00;;;2.10;;
37997;SDS011;24079;51.824;4.682;2023-06-04T14:42:06;4.40;;;1.92;;
37997;SDS011;24079;51.824;4.682;2023-06-04T14:44:31;7.55;;;2.10;;
37997;SDS011;24079;51.824;4.682;2023-06-04T14:46:58;7.38;;;2.05;;
37997;SDS011;24079;51.824;4.682;2023-06-04T14:49:24;5.80;;;1.80;;
37997;SDS011;24079;51.824;4.682;2023-06-04T14:51:50;5.20;;;2.20;;
37997;SDS011;24079;51.824;4.682;2023-06-04T14:54:16;5.18;;;2.20;;
37997;SDS011;24079;51.824;4.682;2023-06-04T14:56:43;7.97;;;2.60;;